Time;durP1;ratioP1;P1;durP2;ratioP2;P2;SDS_P1;SDS_P2;PMS_P1;PMS_P2;Temp;Humidity;BMP_temperature;BMP_pressure;BME280_temperature;BME280_humidity;BME280_pressure;Samples;Min_cycle;Max_cycle;Signal;HPM_P1;HPM_P2
2023/09/08 00:00:43;;;;;;;;;;;;;;;;;;5069677;28;20032;-62
2023/09/08 00:03:09;;;;;;;;;;;;;;;;;;5052621;28;20310;-62
2023/09/08 00:05:34;;;;;;;;;;;;;;;;;;5051396;28;19921;-62
2023/09/08 00:08:00;;;;;;;;;;;;;;;;;;5070765;28;20381;-63
2023/09/08 00:10:26;;;;;;;;;;;;;;;;;;5053562;28;20287;-62
2023/09/08 00:12:52;;;;;;;;;;;;;;;;;;5053084;28;19925;-62
2023/09/08 00:15:18;;;;;;;;;;;;;;;;;;5068684;28;19920;-62
2023/09/08 00:17:47;;;;;;;;;;;;;;;;;;5072163;28;20079;-62
2023/09/08 00:20:13;;;;;;;;;;;;;;;;;;5051320;28;19924;-62
2023/09/08 00:22:39;;;;;;;;;;;;;;;;;;5032883;28;20031;-62
2023/09/08 00:25:05;;;;;;;;;;;;;;;;;;5067798;28;20053;-63
2023/09/08 00:27:31;;;;;;;;;;;;;;;;;;5050778;28;19927;-62
2023/09/08 00:29:57;;;;;;;;;;;;;;;;;;5035069;28;19977;-62
2023/09/08 00:32:23;;;;;;;;;;;;;;;;;;5071684;28;19924;-62
2023/09/08 00:34:48;;;;;;;;;;;;;;;;;;5069592;28;20377;-62
2023/09/08 00:37:14;;;;;;;;;;;;;;;;;;5069622;28;19935;-62
2023/09/08 00:39:40;;;;;;;;;;;;;;;;;;5052394;28;20455;-62
2023/09/08 00:42:09;;;;;;;;;;;;;;;;;;5070261;28;19975;-62
2023/09/08 00:44:35;;;;;;;;;;;;;;;;;;5071144;28;19971;-62
2023/09/08 00:47:01;;;;;;;;;;;;;;;;;;5068459;28;19959;-62
2023/09/08 00:49:28;;;;;;;;;;;;;;;;;;5071729;28;19964;-62
2023/09/08 00:51:54;;;;;;;;;;;;;;;;;;5053789;28;19952;-62
2023/09/08 00:54:20;;;;;;;;;;;;;;;;;;5072415;28;20306;-62
2023/09/08 00:56:46;;;;;;;;;;;;;;;;;;5070670;28;19930;-62
2023/09/08 00:59:11;;;;;;;;;;;;;;;;;;5070088;28;19924;-62
2023/09/08 01:01:37;;;;;;;;;;;;;;;;;;5067654;28;19921;-62
2023/09/08 01:04:03;;;;;;;;;;;;;;;;;;5071371;28;19931;-62
2023/09/08 01:06:29;;;;;;;;;;;;;;;;;;5048763;28;20065;-62
2023/09/08 01:08:55;;;;;;;;;;;;;;;;;;5071038;28;19927;-62
2023/09/08 01:11:21;;;;;;;;;;;;;;;;;;5069489;28;19925;-62
2023/09/08 01:13:47;;;;;;;;;;;;;;;;;;5070879;28;19924;-62
2023/09/08 01:16:13;;;;;;;;;;;;;;;;;;5069472;28;20027;-62
2023/09/08 01:18:39;;;;;;;;;;;;;;;;;;5071698;28;19920;-62
2023/09/08 01:21:05;;;;;;;;;;;;;;;;;;5066449;28;19921;-62
2023/09/08 01:23:31;;;;;;;;;;;;;;;;;;5070958;28;20295;-62
2023/09/08 01:25:57;;;;;;;;;;;;;;;;;;5048037;28;19928;-62
2023/09/08 01:28:23;;;;;;;;;;;;;;;;;;5071142;28;20377;-62
2023/09/08 01:30:49;;;;;;;;;;;;;;;;;;5068338;28;19924;-61
2023/09/08 01:33:15;;;;;;;;;;;;;;;;;;5036623;28;19931;-62
2023/09/08 01:35:41;;;;;;;;;;;;;;;;;;5069295;28;19960;-61
2023/09/08 01:38:07;;;;;;;;;;;;;;;;;;5069990;22;19931;-67
2023/09/08 01:40:32;;;;;;;;;;;;;;;;;;5068420;28;19928;-66
2023/09/08 01:42:58;;;;;;;;;;;;;;;;;;5064716;28;20361;-67
2023/09/08 01:45:24;;;;;;;;;;;;;;;;;;5071511;28;19928;-66
2023/09/08 01:47:50;;;;;;;;;;;;;;;;;;5069886;28;20353;-66
2023/09/08 01:50:21;;;;;;;;;;;;;;;;;;5078290;28;19932;-66
2023/09/08 01:52:47;;;;;;;;;;;;;;;;;;5072844;28;20304;-66
2023/09/08 01:55:13;;;;;;;;;;;;;;;;;;5031458;28;19977;-67
2023/09/08 01:57:39;;;;;;;;;;;;;;;;;;5074807;28;19927;-66
2023/09/08 02:00:05;;;;;;;;;;;;;;;;;;5068188;28;19924;-66
2023/09/08 02:02:31;;;;;;;;;;;;;;;;;;5082593;28;20407;-67
2023/09/08 02:04:57;;;;;;;;;;;;;;;;;;5073264;28;19924;-67
2023/09/08 02:07:23;;;;;;;;;;;;;;;;;;5050256;28;19928;-66
2023/09/08 02:09:48;;;;;;;;;;;;;;;;;;5072794;28;20281;-66
2023/09/08 02:12:14;;;;;;;;;;;;;;;;;;5080083;28;19924;-67
2023/09/08 02:14:40;;;;;;;;;;;;;;;;;;5035905;28;20080;-66
2023/09/08 02:17:06;;;;;;;;;;;;;;;;;;5067353;28;19921;-67
2023/09/08 02:19:32;;;;;;;;;;;;;;;;;;5069352;28;19925;-66
2023/09/08 02:21:58;;;;;;;;;;;;;;;;;;5077539;28;19927;-67
2023/09/08 02:24:24;;;;;;;;;;;;;;;;;;5072445;28;20063;-67
2023/09/08 02:26:50;;;;;;;;;;;;;;;;;;5088090;28;19924;-66
2023/09/08 02:29:16;;;;;;;;;;;;;;;;;;5077263;28;19920;-66
2023/09/08 02:31:42;;;;;;;;;;;;;;;;;;5086740;28;19926;-66
2023/09/08 02:34:07;;;;;;;;;;;;;;;;;;5066240;28;19981;-66
2023/09/08 02:36:33;;;;;;;;;;;;;;;;;;5062763;28;19920;-66
2023/09/08 02:38:59;;;;;;;;;;;;;;;;;;5076538;28;19933;-66
2023/09/08 02:41:25;;;;;;;;;;;;;;;;;;5054911;28;20024;-66
2023/09/08 02:43:51;;;;;;;;;;;;;;;;;;5058685;28;20381;-67
2023/09/08 02:46:17;;;;;;;;;;;;;;;;;;5081691;28;19920;-66
2023/09/08 02:48:43;;;;;;;;;;;;;;;;;;5065390;28;19985;-66
2023/09/08 02:51:09;;;;;;;;;;;;;;;;;;5064364;28;19971;-66
2023/09/08 02:53:35;;;;;;;;;;;;;;;;;;5054593;28;19925;-66
2023/09/08 02:56:03;;;;;;;;;;;;;;;;;;5061998;28;19928;-67
2023/09/08 02:58:30;;;;;;;;;;;;;;;;;;5052809;28;19924;-66
2023/09/08 03:00:56;;;;;;;;;;;;;;;;;;5065410;28;20571;-66
2023/09/08 03:03:22;;;;;;;;;;;;;;;;;;5052812;28;19920;-66
2023/09/08 03:05:48;;;;;;;;;;;;;;;;;;5059309;28;20285;-66
2023/09/08 03:08:14;;;;;;;;;;;;;;;;;;5075842;28;19920;-66
2023/09/08 03:10:40;;;;;;;;;;;;;;;;;;5077370;28;19959;-66
2023/09/08 03:13:06;;;;;;;;;;;;;;;;;;5058580;28;19921;-67
2023/09/08 03:15:32;;;;;;;;;;;;;;;;;;5069569;28;20015;-67
2023/09/08 03:18:01;;;;;;;;;;;;;;;;;;5076476;28;19965;-66
2023/09/08 03:20:27;;;;;;;;;;;;;;;;;;5059409;28;20002;-66
2023/09/08 03:22:53;;;;;;;;;;;;;;;;;;5072171;28;20007;-66
2023/09/08 03:25:19;;;;;;;;;;;;;;;;;;5078590;28;20007;-67
2023/09/08 03:27:44;;;;;;;;;;;;;;;;;;5083973;28;20003;-66
2023/09/08 03:30:10;;;;;;;;;;;;;;;;;;5067192;28;19924;-66
2023/09/08 03:32:36;;;;;;;;;;;;;;;;;;5086525;28;19920;-66
2023/09/08 03:35:03;;;;;;;;;;;;;;;;;;5079701;28;20276;-67
2023/09/08 03:37:29;;;;;;;;;;;;;;;;;;5055770;28;20359;-65
2023/09/08 03:39:55;;;;;;;;;;;;;;;;;;5073286;28;19924;-66
2023/09/08 03:42:21;;;;;;;;;;;;;;;;;;5070591;28;19928;-67
2023/09/08 03:44:47;;;;;;;;;;;;;;;;;;5065379;28;19924;-67
2023/09/08 03:47:13;;;;;;;;;;;;;;;;;;5072654;28;19927;-66
2023/09/08 03:49:39;;;;;;;;;;;;;;;;;;5079649;28;20378;-66
2023/09/08 03:52:05;;;;;;;;;;;;;;;;;;5076424;28;20003;-66
2023/09/08 03:54:31;;;;;;;;;;;;;;;;;;5074404;28;20297;-66
2023/09/08 03:56:57;;;;;;;;;;;;;;;;;;5077554;28;19920;-67
2023/09/08 03:59:23;;;;;;;;;;;;;;;;;;5060475;28;19924;-66
2023/09/08 04:01:48;;;;;;;;;;;;;;;;;;5080514;28;19921;-66
2023/09/08 04:04:14;;;;;;;;;;;;;;;;;;5070406;28;19931;-66
2023/09/08 04:06:40;;;;;;;;;;;;;;;;;;5087077;28;19927;-66
2023/09/08 04:09:07;;;;;;;;;;;;;;;;;;5073011;28;20548;-66
2023/09/08 04:11:33;;;;;;;;;;;;;;;;;;5073618;28;19924;-66
2023/09/08 04:13:59;;;;;;;;;;;;;;;;;;5052519;28;19942;-66
2023/09/08 04:16:25;;;;;;;;;;;;;;;;;;5078600;28;19927;-66
2023/09/08 04:18:51;;;;;;;;;;;;;;;;;;5071551;28;19924;-66
2023/09/08 04:21:16;;;;;;;;;;;;;;;;;;5065565;28;19924;-66
2023/09/08 04:23:42;;;;;;;;;;;;;;;;;;5068893;28;20321;-67
2023/09/08 04:26:08;;;;;;;;;;;;;;;;;;5068840;28;19928;-67
2023/09/08 04:28:34;;;;;;;;;;;;;;;;;;5065294;28;19924;-67
2023/09/08 04:31:00;;;;;;;;;;;;;;;;;;5079821;28;19928;-67
2023/09/08 04:33:26;;;;;;;;;;;;;;;;;;5074314;28;19928;-67
2023/09/08 04:35:52;;;;;;;;;;;;;;;;;;5075275;28;20373;-67
2023/09/08 04:38:18;;;;;;;;;;;;;;;;;;5048502;28;19924;-67
2023/09/08 04:40:43;;;;;;;;;;;;;;;;;;5062131;28;19971;-67
2023/09/08 04:43:09;;;;;;;;;;;;;;;;;;5069605;28;19928;-67
2023/09/08 04:45:35;;;;;;;;;;;;;;;;;;5071263;28;20297;-66
2023/09/08 04:48:01;;;;;;;;;;;;;;;;;;5078478;28;19929;-66
2023/09/08 04:50:27;;;;;;;;;;;;;;;;;;5070138;28;19930;-66
2023/09/08 04:52:53;;;;;;;;;;;;;;;;;;5070708;28;19939;-66
2023/09/08 04:55:19;;;;;;;;;;;;;;;;;;5070892;28;19979;-66
2023/09/08 04:57:45;;;;;;;;;;;;;;;;;;5064037;28;19990;-66
2023/09/08 05:00:11;;;;;;;;;;;;;;;;;;5070232;28;19963;-66
2023/09/08 05:02:37;;;;;;;;;;;;;;;;;;5071425;28;19924;-66
2023/09/08 05:05:03;;;;;;;;;;;;;;;;;;5070468;28;20324;-66
2023/09/08 05:07:29;;;;;;;;;;;;;;;;;;5072147;28;19924;-66
2023/09/08 05:09:55;;;;;;;;;;;;;;;;;;5048160;28;19950;-66
2023/09/08 05:12:21;;;;;;;;;;;;;;;;;;5066916;28;20476;-66
2023/09/08 05:14:47;;;;;;;;;;;;;;;;;;5071676;28;19920;-66
2023/09/08 05:17:13;;;;;;;;;;;;;;;;;;5070042;28;19925;-66
2023/09/08 05:19:38;;;;;;;;;;;;;;;;;;5071509;28;20050;-66
2023/09/08 05:22:04;;;;;;;;;;;;;;;;;;5070448;28;19921;-66
2023/09/08 05:24:30;;;;;;;;;;;;;;;;;;5071745;28;19927;-66
2023/09/08 05:26:56;;;;;;;;;;;;;;;;;;5069406;28;19921;-66
2023/09/08 05:29:22;;;;;;;;;;;;;;;;;;5071269;28;19930;-66
2023/09/08 05:31:48;;;;;;;;;;;;;;;;;;5069502;28;19920;-66
2023/09/08 05:34:14;;;;;;;;;;;;;;;;;;5071419;28;19921;-66
2023/09/08 05:36:42;;;;;;;;;;;;;;;;;;5053341;28;19940;-67
2023/09/08 05:39:08;;;;;;;;;;;;;;;;;;5048863;28;20362;-66
2023/09/08 05:41:34;;;;;;;;;;;;;;;;;;5066704;28;19925;-66
2023/09/08 05:43:59;;;;;;;;;;;;;;;;;;5058914;28;19930;-67
2023/09/08 05:46:25;;;;;;;;;;;;;;;;;;5066788;28;19920;-67
2023/09/08 05:48:51;;;;;;;;;;;;;;;;;;5050266;28;19927;-66
2023/09/08 05:51:17;;;;;;;;;;;;;;;;;;5066681;28;19924;-67
2023/09/08 05:53:43;;;;;;;;;;;;;;;;;;5070489;28;19925;-66
2023/09/08 05:56:09;;;;;;;;;;;;;;;;;;5050240;28;19925;-66
2023/09/08 05:58:35;;;;;;;;;;;;;;;;;;5066841;28;20385;-66
2023/09/08 06:01:01;;;;;;;;;;;;;;;;;;5063712;28;19931;-66
2023/09/08 06:03:27;;;;;;;;;;;;;;;;;;5069001;28;19982;-66
2023/09/08 06:05:53;;;;;;;;;;;;;;;;;;5045960;28;19921;-66
2023/09/08 06:08:19;;;;;;;;;;;;;;;;;;5050100;28;20534;-66
2023/09/08 06:10:45;;;;;;;;;;;;;;;;;;5067151;28;20365;-66
2023/09/08 06:13:10;;;;;;;;;;;;;;;;;;5070735;28;19928;-66
2023/09/08 06:15:36;;;;;;;;;;;;;;;;;;5047369;28;19921;-66
2023/09/08 06:18:02;;;;;;;;;;;;;;;;;;5067193;28;20043;-66
2023/09/08 06:20:28;;;;;;;;;;;;;;;;;;5051051;28;19963;-66
2023/09/08 06:22:54;;;;;;;;;;;;;;;;;;5071459;28;20323;-66
2023/09/08 06:25:20;;;;;;;;;;;;;;;;;;5065476;28;19944;-66
2023/09/08 06:27:47;;;;;;;;;;;;;;;;;;5067875;28;19921;-67
2023/09/08 06:30:17;;;;;;;;;;;;;;;;;;5067908;28;19925;-66
2023/09/08 06:32:43;;;;;;;;;;;;;;;;;;5067755;28;19924;-66
2023/09/08 06:35:09;;;;;;;;;;;;;;;;;;5050853;28;20660;-66
2023/09/08 06:37:36;;;;;;;;;;;;;;;;;;5062678;28;19967;-66
2023/09/08 06:40:02;;;;;;;;;;;;;;;;;;5073675;28;19932;-67
2023/09/08 06:42:28;;;;;;;;;;;;;;;;;;5071401;28;19921;-67
2023/09/08 06:44:53;;;;;;;;;;;;;;;;;;5069008;28;19973;-67
2023/09/08 06:47:19;;;;;;;;;;;;;;;;;;5060361;28;19924;-66
2023/09/08 06:49:46;;;;;;;;;;;;;;;;;;5055507;28;19932;-66
2023/09/08 06:52:12;;;;;;;;;;;;;;;;;;5065475;28;19921;-67
2023/09/08 06:54:38;;;;;;;;;;;;;;;;;;5068473;28;20339;-67
2023/09/08 06:57:04;;;;;;;;;;;;;;;;;;5066015;28;19932;-67
2023/09/08 06:59:30;;;;;;;;;;;;;;;;;;5065140;28;19928;-67
2023/09/08 07:01:56;;;;;;;;;;;;;;;;;;5068817;28;19966;-67
2023/09/08 07:04:21;;;;;;;;;;;;;;;;;;5063585;28;19920;-67
2023/09/08 07:06:49;;;;;;;;;;;;;;;;;;5055221;28;20082;-66
2023/09/08 07:09:15;;;;;;;;;;;;;;;;;;5050274;28;19932;-66
2023/09/08 07:11:41;;;;;;;;;;;;;;;;;;5062805;28;19928;-66
2023/09/08 07:14:07;;;;;;;;;;;;;;;;;;5073407;28;19920;-67
2023/09/08 07:16:33;;;;;;;;;;;;;;;;;;5072483;28;19920;-66
2023/09/08 07:19:01;;;;;;;;;;;;;;;;;;5071020;28;22123;-66
2023/09/08 07:21:27;;;;;;;;;;;;;;;;;;5076447;28;19920;-66
2023/09/08 07:23:56;;;;;;;;;;;;;;;;;;5080002;28;20328;-67
2023/09/08 07:26:22;;;;;;;;;;;;;;;;;;5044653;28;20964;-67
2023/09/08 07:28:48;;;;;;;;;;;;;;;;;;5062624;28;19970;-67
2023/09/08 07:31:14;;;;;;;;;;;;;;;;;;5079065;28;19931;-66
2023/09/08 07:33:40;;;;;;;;;;;;;;;;;;5077300;28;19920;-67
2023/09/08 07:36:06;;;;;;;;;;;;;;;;;;5072804;28;19982;-67
2023/09/08 07:38:32;;;;;;;;;;;;;;;;;;5076239;28;19924;-67
2023/09/08 07:41:00;;;;;;;;;;;;;;;;;;5076526;28;19924;-67
2023/09/08 07:43:26;;;;;;;;;;;;;;;;;;5055421;28;19923;-67
2023/09/08 07:45:52;;;;;;;;;;;;;;;;;;5070559;28;19920;-67
2023/09/08 07:48:18;;;;;;;;;;;;;;;;;;5074013;28;19944;-66
2023/09/08 07:50:44;;;;;;;;;;;;;;;;;;5073845;28;19966;-66
2023/09/08 07:53:10;;;;;;;;;;;;;;;;;;5077470;28;19928;-66
2023/09/08 07:55:36;;;;;;;;;;;;;;;;;;5074175;28;19925;-67
2023/09/08 07:58:02;;;;;;;;;;;;;;;;;;5075658;28;20336;-66
2023/09/08 08:00:28;;;;;;;;;;;;;;;;;;5073377;28;19979;-67
2023/09/08 08:02:54;;;;;;;;;;;;;;;;;;5078984;28;20000;-67
2023/09/08 08:05:20;;;;;;;;;;;;;;;;;;5074611;28;20332;-65
2023/09/08 08:07:46;;;;;;;;;;;;;;;;;;5049877;28;20456;-64
2023/09/08 08:10:11;;;;;;;;;;;;;;;;;;5071640;28;19971;-65
2023/09/08 08:12:37;;;;;;;;;;;;;;;;;;5048572;28;19924;-65
2023/09/08 08:15:04;;;;;;;;;;;;;;;;;;5071522;28;19929;-65
2023/09/08 08:17:30;;;;;;;;;;;;;;;;;;5068138;28;19933;-64
2023/09/08 08:19:58;;;;;;;;;;;;;;;;;;5067832;28;19963;-65
2023/09/08 08:22:24;;;;;;;;;;;;;;;;;;5067111;28;19924;-64
2023/09/08 08:24:50;;;;;;;;;;;;;;;;;;5053516;28;20303;-65
2023/09/08 08:27:15;;;;;;;;;;;;;;;;;;5071949;28;19956;-64
2023/09/08 08:29:41;;;;;;;;;;;;;;;;;;5072212;28;20261;-65
2023/09/08 08:32:07;;;;;;;;;;;;;;;;;;5072009;28;19925;-64
2023/09/08 08:34:33;;;;;;;;;;;;;;;;;;5073218;28;19920;-64
2023/09/08 08:36:59;;;;;;;;;;;;;;;;;;5072133;28;19924;-65
2023/09/08 08:39:25;;;;;;;;;;;;;;;;;;5035227;28;19933;-64
2023/09/08 08:41:51;;;;;;;;;;;;;;;;;;5030712;28;20393;-64
2023/09/08 08:44:18;;;;;;;;;;;;;;;;;;5027403;28;19992;-64
2023/09/08 08:46:43;;;;;;;;;;;;;;;;;;5024156;28;19921;-64
2023/09/08 08:49:09;;;;;;;;;;;;;;;;;;5024825;28;19940;-65
2023/09/08 08:51:35;;;;;;;;;;;;;;;;;;5022661;28;19925;-64
2023/09/08 08:54:04;;;;;;;;;;;;;;;;;;5032498;28;19979;-64
2023/09/08 08:56:30;;;;;;;;;;;;;;;;;;5019513;28;19936;-64
2023/09/08 08:58:56;;;;;;;;;;;;;;;;;;5023022;28;19925;-64
2023/09/08 09:01:21;;;;;;;;;;;;;;;;;;5021733;28;20020;-64
2023/09/08 09:03:48;;;;;;;;;;;;;;;;;;5023418;28;19980;-65
2023/09/08 09:06:14;;;;;;;;;;;;;;;;;;5031210;28;19921;-64
2023/09/08 09:08:40;;;;;;;;;;;;;;;;;;5032189;28;19929;-65
2023/09/08 09:11:06;;;;;;;;;;;;;;;;;;5027918;28;20268;-64
2023/09/08 09:13:32;;;;;;;;;;;;;;;;;;5025352;28;19925;-64
2023/09/08 09:15:58;;;;;;;;;;;;;;;;;;5030930;28;19979;-64
2023/09/08 09:18:24;;;;;;;;;;;;;;;;;;5032442;28;19921;-64
2023/09/08 09:20:50;;;;;;;;;;;;;;;;;;5032157;28;19932;-64
2023/09/08 09:23:16;;;;;;;;;;;;;;;;;;5032245;28;19921;-64
2023/09/08 09:25:43;;;;;;;;;;;;;;;;;;5032337;28;19932;-64
2023/09/08 09:28:09;;;;;;;;;;;;;;;;;;5032029;28;19921;-65
2023/09/08 09:30:34;;;;;;;;;;;;;;;;;;5029988;28;20511;-64
2023/09/08 09:33:01;;;;;;;;;;;;;;;;;;5031744;28;20010;-65
2023/09/08 09:35:27;;;;;;;;;;;;;;;;;;5030556;28;19952;-64
2023/09/08 09:37:54;;;;;;;;;;;;;;;;;;5038348;28;19931;-64
2023/09/08 09:40:20;;;;;;;;;;;;;;;;;;5070380;28;19931;-65
2023/09/08 09:42:46;;;;;;;;;;;;;;;;;;5072088;28;20293;-65
2023/09/08 09:45:12;;;;;;;;;;;;;;;;;;5070271;28;19924;-65
2023/09/08 09:47:38;;;;;;;;;;;;;;;;;;5070218;28;19973;-65
2023/09/08 09:50:04;;;;;;;;;;;;;;;;;;5071286;28;19928;-64
2023/09/08 09:52:31;;;;;;;;;;;;;;;;;;5070219;28;19954;-65
2023/09/08 09:54:57;;;;;;;;;;;;;;;;;;5036366;28;19956;-67
2023/09/08 09:57:23;;;;;;;;;;;;;;;;;;5071335;28;19962;-64
2023/09/08 09:59:50;;;;;;;;;;;;;;;;;;5071347;28;19924;-65
2023/09/08 10:02:16;;;;;;;;;;;;;;;;;;5067102;28;20335;-66
2023/09/08 10:04:42;;;;;;;;;;;;;;;;;;5066126;28;19920;-66
2023/09/08 10:07:08;;;;;;;;;;;;;;;;;;5071695;28;19928;-65
2023/09/08 10:09:34;;;;;;;;;;;;;;;;;;5042749;28;19920;-66
2023/09/08 10:11:59;;;;;;;;;;;;;;;;;;5067797;28;19920;-66
2023/09/08 10:14:25;;;;;;;;;;;;;;;;;;5063445;28;19925;-66
2023/09/08 10:16:52;;;;;;;;;;;;;;;;;;5058753;28;19929;-66
2023/09/08 10:19:18;;;;;;;;;;;;;;;;;;5050807;28;19920;-66
2023/09/08 10:21:44;;;;;;;;;;;;;;;;;;5056410;28;20316;-66
2023/09/08 10:24:11;;;;;;;;;;;;;;;;;;5050102;28;20014;-65
2023/09/08 10:26:37;;;;;;;;;;;;;;;;;;5063585;28;19920;-65
2023/09/08 10:29:03;;;;;;;;;;;;;;;;;;5065289;28;19924;-65
2023/09/08 10:31:29;;;;;;;;;;;;;;;;;;5070327;28;20362;-64
2023/09/08 10:33:55;;;;;;;;;;;;;;;;;;5058355;28;19994;-65
2023/09/08 10:36:21;;;;;;;;;;;;;;;;;;5069334;28;19928;-64
2023/09/08 10:38:49;;;;;;;;;;;;;;;;;;5067783;28;19928;-65
2023/09/08 10:41:15;;;;;;;;;;;;;;;;;;5048393;28;19931;-66
2023/09/08 10:43:41;;;;;;;;;;;;;;;;;;5052604;28;20381;-66
2023/09/08 10:46:06;;;;;;;;;;;;;;;;;;5040255;28;19991;-66
2023/09/08 10:48:32;;;;;;;;;;;;;;;;;;5054622;28;19963;-66
2023/09/08 10:50:58;;;;;;;;;;;;;;;;;;5075320;28;19931;-66
2023/09/08 10:53:25;;;;;;;;;;;;;;;;;;5074604;28;19920;-66
2023/09/08 10:55:52;;;;;;;;;;;;;;;;;;5072806;28;19924;-66
2023/09/08 10:58:19;;;;;;;;;;;;;;;;;;5055922;28;19921;-66
2023/09/08 11:00:45;;;;;;;;;;;;;;;;;;5059308;28;19924;-66
2023/09/08 11:03:11;;;;;;;;;;;;;;;;;;5077223;28;19935;-66
2023/09/08 11:05:37;;;;;;;;;;;;;;;;;;5055868;28;19920;-67
2023/09/08 11:08:03;;;;;;;;;;;;;;;;;;5073690;28;20356;-66
2023/09/08 11:10:31;;;;;;;;;;;;;;;;;;5073540;28;20427;-66
2023/09/08 11:12:57;;;;;;;;;;;;;;;;;;5074707;28;19921;-67
2023/09/08 11:15:23;;;;;;;;;;;;;;;;;;5064599;28;19920;-66
2023/09/08 11:17:50;;;;;;;;;;;;;;;;;;5072066;28;19930;-67
2023/09/08 11:20:17;;;;;;;;;;;;;;;;;;5055736;28;19951;-66
2023/09/08 11:22:43;;;;;;;;;;;;;;;;;;5079039;28;19963;-66
2023/09/08 11:25:10;;;;;;;;;;;;;;;;;;5071518;28;19987;-67
2023/09/08 11:27:36;;;;;;;;;;;;;;;;;;5073340;28;19946;-67
2023/09/08 11:30:04;;;;;;;;;;;;;;;;;;5079472;28;20345;-66
2023/09/08 11:32:30;;;;;;;;;;;;;;;;;;5062712;28;19954;-66
2023/09/08 11:34:56;;;;;;;;;;;;;;;;;;5056006;28;19924;-66
2023/09/08 11:37:22;;;;;;;;;;;;;;;;;;5063931;28;19924;-66
2023/09/08 11:39:48;;;;;;;;;;;;;;;;;;5065379;28;19928;-66
2023/09/08 11:42:14;;;;;;;;;;;;;;;;;;5073760;28;19971;-67
2023/09/08 11:44:40;;;;;;;;;;;;;;;;;;5077108;28;20041;-66
2023/09/08 11:47:06;;;;;;;;;;;;;;;;;;5068977;28;19943;-66
2023/09/08 11:49:31;;;;;;;;;;;;;;;;;;5071944;28;19921;-66
2023/09/08 11:51:57;;;;;;;;;;;;;;;;;;5069787;28;19931;-66
2023/09/08 11:54:23;;;;;;;;;;;;;;;;;;5048612;28;19920;-66
2023/09/08 11:56:49;;;;;;;;;;;;;;;;;;5071544;28;20070;-66
2023/09/08 11:59:15;;;;;;;;;;;;;;;;;;5065736;28;19935;-66
2023/09/08 12:01:41;;;;;;;;;;;;;;;;;;5052228;28;19924;-66
2023/09/08 12:04:07;;;;;;;;;;;;;;;;;;5072429;28;19960;-66
2023/09/08 12:06:33;;;;;;;;;;;;;;;;;;5068897;28;19971;-66
2023/09/08 12:09:02;;;;;;;;;;;;;;;;;;5071857;28;20007;-66
2023/09/08 12:11:28;;;;;;;;;;;;;;;;;;5066157;28;19924;-66
2023/09/08 12:13:54;;;;;;;;;;;;;;;;;;5067037;28;19920;-66
2023/09/08 12:16:20;;;;;;;;;;;;;;;;;;5054473;28;19936;-66
2023/09/08 12:18:45;;;;;;;;;;;;;;;;;;5068551;28;19928;-66
2023/09/08 12:21:11;;;;;;;;;;;;;;;;;;5069076;28;19931;-66
2023/09/08 12:23:37;;;;;;;;;;;;;;;;;;5072526;28;19978;-66
2023/09/08 12:26:03;;;;;;;;;;;;;;;;;;5071848;28;20366;-66
2023/09/08 12:28:29;;;;;;;;;;;;;;;;;;5070310;28;19927;-66
2023/09/08 12:30:55;;;;;;;;;;;;;;;;;;5071056;28;20338;-66
2023/09/08 12:33:21;;;;;;;;;;;;;;;;;;5050171;28;20003;-66
2023/09/08 12:35:48;;;;;;;;;;;;;;;;;;5048442;28;19974;-66
2023/09/08 12:38:14;;;;;;;;;;;;;;;;;;5074000;28;19935;-66
2023/09/08 12:40:40;;;;;;;;;;;;;;;;;;5069891;28;20277;-66
2023/09/08 12:43:06;;;;;;;;;;;;;;;;;;5067784;28;19934;-66
2023/09/08 12:45:32;;;;;;;;;;;;;;;;;;5070362;28;19924;-66
2023/09/08 12:47:58;;;;;;;;;;;;;;;;;;5070723;28;19943;-66
2023/09/08 12:50:24;;;;;;;;;;;;;;;;;;5069990;28;19928;-66
2023/09/08 12:52:50;;;;;;;;;;;;;;;;;;5068108;28;19932;-66
2023/09/08 12:55:16;;;;;;;;;;;;;;;;;;5069873;28;19928;-67
2023/09/08 12:57:42;;;;;;;;;;;;;;;;;;5071793;28;19924;-66
2023/09/08 13:00:08;;;;;;;;;;;;;;;;;;5071361;28;19920;-66
2023/09/08 13:02:34;;;;;;;;;;;;;;;;;;5032706;28;19920;-66
2023/09/08 13:05:00;;;;;;;;;;;;;;;;;;5071974;28;19954;-66
2023/09/08 13:07:26;;;;;;;;;;;;;;;;;;5068600;28;19921;-66
2023/09/08 13:09:52;;;;;;;;;;;;;;;;;;5070693;28;20033;-66
2023/09/08 13:12:18;;;;;;;;;;;;;;;;;;5071124;28;19924;-66
2023/09/08 13:14:44;;;;;;;;;;;;;;;;;;5070766;28;19927;-66
2023/09/08 13:17:10;;;;;;;;;;;;;;;;;;5071186;28;19929;-66
2023/09/08 13:19:37;;;;;;;;;;;;;;;;;;5070943;28;20568;-66
2023/09/08 13:22:03;;;;;;;;;;;;;;;;;;5072497;28;20278;-66
2023/09/08 13:24:29;;;;;;;;;;;;;;;;;;5069653;28;19920;-66
2023/09/08 13:26:55;;;;;;;;;;;;;;;;;;5053358;28;19925;-66
2023/09/08 13:29:21;;;;;;;;;;;;;;;;;;5072276;28;19999;-66
2023/09/08 13:31:47;;;;;;;;;;;;;;;;;;5075466;28;20359;-66
2023/09/08 13:34:13;;;;;;;;;;;;;;;;;;5069016;28;19924;-66
2023/09/08 13:36:38;;;;;;;;;;;;;;;;;;5053476;28;19928;-66
2023/09/08 13:39:04;;;;;;;;;;;;;;;;;;5072377;28;19925;-66
2023/09/08 13:41:30;;;;;;;;;;;;;;;;;;5065320;28;19935;-66
2023/09/08 13:43:59;;;;;;;;;;;;;;;;;;5065427;28;19928;-66
2023/09/08 13:46:24;;;;;;;;;;;;;;;;;;5071430;28;19928;-66
2023/09/08 13:48:50;;;;;;;;;;;;;;;;;;5070647;28;19928;-66
2023/09/08 13:51:17;;;;;;;;;;;;;;;;;;5048422;28;20322;-67
2023/09/08 13:53:43;;;;;;;;;;;;;;;;;;5073511;22;19936;-60
2023/09/08 13:56:09;;;;;;;;;;;;;;;;;;5068500;28;20300;-60
2023/09/08 13:58:35;;;;;;;;;;;;;;;;;;5070729;28;19940;-60
2023/09/08 14:01:01;;;;;;;;;;;;;;;;;;5054734;28;19931;-60
2023/09/08 14:03:27;;;;;;;;;;;;;;;;;;5064433;28;19930;-60
2023/09/08 14:05:53;;;;;;;;;;;;;;;;;;5066742;28;19921;-61
2023/09/08 14:08:19;;;;;;;;;;;;;;;;;;5063599;28;20381;-60
2023/09/08 14:10:45;;;;;;;;;;;;;;;;;;5071910;28;19928;-60
2023/09/08 14:13:10;;;;;;;;;;;;;;;;;;5065633;28;19924;-60
2023/09/08 14:15:37;;;;;;;;;;;;;;;;;;5067799;28;19924;-60
2023/09/08 14:18:03;;;;;;;;;;;;;;;;;;5066419;28;19929;-60
2023/09/08 14:20:28;;;;;;;;;;;;;;;;;;5071713;28;20630;-61
2023/09/08 14:22:54;;;;;;;;;;;;;;;;;;5064902;28;19931;-61
2023/09/08 14:25:20;;;;;;;;;;;;;;;;;;5066669;28;20319;-61
2023/09/08 14:27:46;;;;;;;;;;;;;;;;;;5072661;28;19927;-60
2023/09/08 14:30:12;;;;;;;;;;;;;;;;;;5072750;28;19963;-60
2023/09/08 14:32:38;;;;;;;;;;;;;;;;;;5067650;28;19930;-60
2023/09/08 14:35:04;;;;;;;;;;;;;;;;;;5051304;28;19959;-61
2023/09/08 14:37:30;;;;;;;;;;;;;;;;;;5070621;28;19971;-60
2023/09/08 14:39:56;;;;;;;;;;;;;;;;;;5067022;28;19928;-61
2023/09/08 14:42:22;;;;;;;;;;;;;;;;;;5067136;28;20493;-61
2023/09/08 14:44:51;;;;;;;;;;;;;;;;;;5068342;28;19928;-61
2023/09/08 14:47:17;;;;;;;;;;;;;;;;;;5042646;28;19978;-61
2023/09/08 14:49:43;;;;;;;;;;;;;;;;;;5055059;28;19938;-61
2023/09/08 14:52:09;;;;;;;;;;;;;;;;;;5064650;28;19963;-61
2023/09/08 14:54:34;;;;;;;;;;;;;;;;;;5068143;28;20366;-61
2023/09/08 14:57:00;;;;;;;;;;;;;;;;;;5074975;28;20369;-60
2023/09/08 14:59:26;;;;;;;;;;;;;;;;;;5048702;28;19933;-61
2023/09/08 15:01:53;;;;;;;;;;;;;;;;;;5070027;28;19925;-61
2023/09/08 15:04:19;;;;;;;;;;;;;;;;;;5065181;28;19928;-61
2023/09/08 15:06:45;;;;;;;;;;;;;;;;;;5068131;28;20277;-61
2023/09/08 15:09:12;;;;;;;;;;;;;;;;;;5035760;28;20536;-61
2023/09/08 15:11:38;;;;;;;;;;;;;;;;;;5069043;28;19925;-61
2023/09/08 15:14:04;;;;;;;;;;;;;;;;;;5070826;28;19933;-61
2023/09/08 15:16:29;;;;;;;;;;;;;;;;;;5066879;28;20358;-61
2023/09/08 15:18:55;;;;;;;;;;;;;;;;;;5073213;28;19936;-61
2023/09/08 15:21:25;;;;;;;;;;;;;;;;;;5076255;28;20400;-60
2023/09/08 15:23:51;;;;;;;;;;;;;;;;;;5074420;28;19953;-60
2023/09/08 15:26:17;;;;;;;;;;;;;;;;;;5073579;28;19999;-60
2023/09/08 15:28:43;;;;;;;;;;;;;;;;;;5069131;28;19951;-60
2023/09/08 15:31:10;;;;;;;;;;;;;;;;;;5057942;28;19924;-60
2023/09/08 15:33:36;;;;;;;;;;;;;;;;;;5051840;28;19929;-60
2023/09/08 15:36:02;;;;;;;;;;;;;;;;;;5052401;28;20684;-60
2023/09/08 15:38:28;;;;;;;;;;;;;;;;;;5057535;28;19924;-60
2023/09/08 15:40:54;;;;;;;;;;;;;;;;;;5056577;28;19930;-61
2023/09/08 15:43:20;;;;;;;;;;;;;;;;;;5023433;28;19920;-61
2023/09/08 15:45:46;;;;;;;;;;;;;;;;;;5058106;28;20472;-60
2023/09/08 15:48:12;;;;;;;;;;;;;;;;;;5059759;28;19929;-60
2023/09/08 15:50:37;;;;;;;;;;;;;;;;;;5056764;28;19921;-60
2023/09/08 15:53:03;;;;;;;;;;;;;;;;;;5057454;28;19928;-60
2023/09/08 15:55:29;;;;;;;;;;;;;;;;;;5059285;28;19924;-60
2023/09/08 15:57:55;;;;;;;;;;;;;;;;;;5047035;28;20668;-61
2023/09/08 16:00:21;;;;;;;;;;;;;;;;;;5056073;28;19929;-61
2023/09/08 16:02:47;;;;;;;;;;;;;;;;;;5060299;28;20249;-61
2023/09/08 16:05:14;;;;;;;;;;;;;;;;;;5057189;28;19935;-60
2023/09/08 16:07:41;;;;;;;;;;;;;;;;;;5065773;28;20337;-60
2023/09/08 16:10:07;;;;;;;;;;;;;;;;;;5073438;28;19920;-60
2023/09/08 16:12:33;;;;;;;;;;;;;;;;;;5073265;28;19920;-62
2023/09/08 16:14:59;;;;;;;;;;;;;;;;;;5053526;28;19920;-60
2023/09/08 16:17:26;;;;;;;;;;;;;;;;;;5071920;28;19936;-60
2023/09/08 16:19:51;;;;;;;;;;;;;;;;;;5070936;28;19931;-60
2023/09/08 16:22:17;;;;;;;;;;;;;;;;;;5071961;28;19948;-60
2023/09/08 16:24:43;;;;;;;;;;;;;;;;;;5067093;28;19979;-60
2023/09/08 16:27:09;;;;;;;;;;;;;;;;;;5072074;28;19950;-60
2023/09/08 16:29:35;;;;;;;;;;;;;;;;;;5070846;28;20426;-61
2023/09/08 16:32:01;;;;;;;;;;;;;;;;;;5071941;28;19925;-61
2023/09/08 16:34:27;;;;;;;;;;;;;;;;;;5069668;28;19924;-61
2023/09/08 16:36:53;;;;;;;;;;;;;;;;;;5071375;28;19929;-61